createdAt,value
2019-01-09T00:01:13.407Z,1.00
2019-01-09T00:03:43.650Z,1.00
2019-01-09T00:06:13.954Z,1.00
2019-01-09T00:08:44.076Z,1.00
2019-01-09T00:11:14.272Z,1.00
2019-01-09T00:13:44.541Z,1.00
2019-01-09T00:16:14.570Z,1.00
2019-01-09T00:18:44.699Z,1.00
2019-01-09T00:21:16.173Z,1.00
2019-01-09T00:23:46.354Z,1.00
2019-01-09T00:26:16.462Z,1.00
2019-01-09T00:28:46.515Z,1.00
2019-01-09T00:31:16.586Z,1.00
2019-01-09T00:33:46.650Z,1.00
2019-01-09T00:36:16.723Z,1.00
2019-01-09T00:38:47.131Z,1.00
2019-01-09T00:41:17.205Z,1.00
2019-01-09T00:43:47.261Z,1.00
2019-01-09T00:46:17.305Z,1.00
2019-01-09T00:48:47.442Z,1.00
2019-01-09T00:51:17.507Z,1.00
2019-01-09T00:53:48.566Z,1.00
2019-01-09T00:56:18.789Z,1.00
2019-01-09T00:58:49.176Z,1.00
2019-01-09T01:01:19.357Z,1.00
2019-01-09T01:04:24.170Z,1.60
2019-01-09T01:07:39.045Z,9.40
2019-01-09T01:10:45.682Z,21.70
2019-01-09T01:14:02.435Z,9.30
2019-01-09T01:17:20.356Z,9.70
2019-01-09T01:20:12.670Z,4.90
2019-01-09T01:23:18.287Z,5.80
2019-01-09T01:26:34.535Z,8.10
2019-01-09T01:29:50.486Z,11.70
2019-01-09T01:33:10.998Z,13.80
2019-01-09T01:36:35.809Z,6.70
2019-01-09T01:39:52.936Z,1.00
2019-01-09T01:43:18.983Z,2.00
2019-01-09T01:46:26.565Z,1.00
2019-01-09T01:49:26.961Z,1.00
2019-01-09T01:52:37.180Z,1.00
2019-01-09T01:55:28.959Z,1.00
2019-01-09T01:58:30.083Z,1.00
2019-01-09T02:01:43.352Z,4.40
2019-01-09T02:05:00.431Z,11.40
2019-01-09T02:08:17.287Z,4.80
2019-01-09T02:11:55.452Z,1.70
2019-01-09T02:15:03.778Z,3.00
2019-01-09T02:17:57.623Z,16.60
2019-01-09T02:21:09.234Z,4.20
2019-01-09T02:24:10.138Z,5.70
2019-01-09T02:27:16.805Z,14.90
2019-01-09T02:30:11.984Z,13.50
2019-01-09T02:32:42.295Z,11.90
2019-01-09T02:35:12.509Z,16.50
2019-01-09T02:37:42.733Z,2.30
2019-01-09T02:40:14.089Z,3.30
2019-01-09T02:42:44.349Z,9.30
2019-01-09T02:45:14.410Z,7.90
2019-01-09T02:47:44.547Z,6.20
2019-01-09T02:50:14.901Z,9.40
2019-01-09T02:52:45.308Z,6.80
2019-01-09T02:55:15.573Z,12.50
2019-01-09T02:57:45.784Z,11.40
2019-01-09T03:00:15.848Z,3.30
2019-01-09T03:02:45.956Z,2.10
2019-01-09T03:05:16.158Z,4.80
2019-01-09T03:07:46.571Z,3.10
2019-01-09T03:10:16.636Z,1.00
2019-01-09T03:12:46.710Z,1.80
2019-01-09T03:15:16.778Z,16.80
2019-01-09T03:17:46.959Z,64.40
2019-01-09T03:20:17.319Z,86.30
2019-01-09T03:22:47.473Z,97.60
2019-01-09T03:25:17.558Z,99.90
2019-01-09T03:27:47.609Z,99.90
2019-01-09T03:30:17.595Z,99.90
2019-01-09T03:32:47.679Z,99.90
2019-01-09T03:35:17.764Z,99.90
2019-01-09T03:37:47.863Z,99.90
2019-01-09T03:40:17.900Z,99.90
2019-01-09T03:42:48.954Z,99.90
2019-01-09T03:45:18.952Z,99.90
2019-01-09T03:47:49.106Z,99.90
2019-01-09T03:50:19.455Z,99.90
2019-01-09T03:52:49.634Z,99.90
2019-01-09T03:55:19.755Z,99.90
2019-01-09T03:57:49.839Z,99.90
2019-01-09T04:00:19.822Z,99.90
2019-01-09T04:02:49.934Z,99.90
2019-01-09T04:05:20.084Z,99.90
2019-01-09T04:07:50.201Z,99.90
2019-01-09T04:10:20.611Z,99.90
2019-01-09T04:12:50.760Z,99.90
2019-01-09T04:15:21.011Z,99.90
2019-01-09T04:17:51.091Z,99.90
2019-01-09T04:20:21.140Z,99.90
2019-01-09T04:22:51.304Z,99.90
2019-01-09T04:25:21.648Z,99.90
2019-01-09T04:27:51.788Z,99.90
2019-01-09T04:30:21.814Z,99.90
2019-01-09T04:32:51.886Z,99.90
2019-01-09T04:35:21.984Z,99.90
2019-01-09T04:37:52.220Z,99.90
2019-01-09T04:40:22.287Z,99.90
2019-01-09T04:42:52.451Z,99.90
2019-01-09T04:45:22.460Z,99.90
2019-01-09T04:47:52.863Z,99.90
2019-01-09T04:50:22.951Z,99.90
2019-01-09T04:52:53.008Z,99.90
2019-01-09T04:55:23.172Z,99.90
2019-01-09T04:57:54.219Z,99.90
2019-01-09T05:00:24.363Z,99.90
2019-01-09T05:02:54.873Z,99.90
2019-01-09T05:05:24.965Z,99.90
2019-01-09T05:07:55.020Z,99.90
2019-01-09T05:10:25.089Z,99.90
2019-01-09T05:12:55.248Z,99.90
2019-01-09T05:15:25.240Z,99.90
2019-01-09T05:17:55.333Z,99.90
2019-01-09T05:20:25.470Z,91.70
2019-01-09T05:22:55.493Z,91.90
2019-01-09T05:25:25.543Z,95.20
2019-01-09T05:27:55.942Z,81.20
2019-01-09T05:30:25.971Z,78.70
2019-01-09T05:32:56.092Z,85.40
2019-01-09T05:35:26.303Z,86.60
2019-01-09T05:37:56.505Z,82.90
2019-01-09T05:40:26.644Z,77.40
2019-01-09T05:42:57.142Z,75.60
2019-01-09T05:45:27.231Z,78.20
2019-01-09T05:47:57.414Z,77.50
2019-01-09T05:50:27.555Z,69.10
2019-01-09T05:52:57.751Z,71.80
2019-01-09T05:55:28.085Z,63.80
2019-01-09T05:57:58.374Z,68.80
2019-01-09T06:00:28.494Z,75.90
2019-01-09T06:02:58.679Z,74.90
2019-01-09T06:05:28.743Z,77.80
2019-01-09T06:07:59.155Z,72.30
2019-01-09T06:10:29.240Z,66.20
2019-01-09T06:12:59.406Z,69.70
2019-01-09T06:15:31.583Z,65.10
2019-01-09T06:18:01.776Z,57.00
2019-01-09T06:20:31.863Z,64.00
2019-01-09T06:23:02.223Z,53.80
2019-01-09T06:25:34.687Z,45.80
2019-01-09T06:28:04.742Z,46.10
2019-01-09T06:30:34.911Z,43.00
2019-01-09T06:33:05.412Z,43.10
2019-01-09T06:35:35.479Z,39.10
2019-01-09T06:38:05.619Z,34.10
2019-01-09T06:40:35.675Z,46.50
2019-01-09T06:43:05.847Z,53.50
2019-01-09T06:45:35.976Z,43.60
2019-01-09T06:48:06.372Z,38.90
2019-01-09T06:50:36.442Z,30.80
2019-01-09T06:53:06.603Z,9.00
2019-01-09T06:55:36.632Z,1.00
2019-01-09T06:58:06.766Z,1.00
2019-01-09T07:00:36.776Z,1.00
2019-01-09T07:03:06.911Z,1.00
2019-01-09T07:05:36.983Z,1.00
2019-01-09T07:08:07.138Z,1.00
2019-01-09T07:10:37.463Z,1.00
2019-01-09T07:13:07.741Z,1.00
2019-01-09T07:15:37.884Z,1.00
2019-01-09T07:18:07.959Z,1.00
2019-01-09T07:20:38.091Z,1.00
2019-01-09T07:23:08.539Z,3.00
2019-01-09T07:25:38.682Z,1.00
2019-01-09T07:28:08.828Z,7.10
2019-01-09T07:30:38.961Z,11.00
2019-01-09T07:33:09.117Z,18.90
2019-01-09T07:35:39.447Z,28.80
2019-01-09T07:38:09.857Z,37.40
2019-01-09T07:40:39.902Z,40.50
2019-01-09T07:43:09.970Z,49.00
2019-01-09T07:45:40.061Z,72.60
2019-01-09T07:48:10.145Z,99.90
2019-01-09T07:50:40.380Z,99.90
2019-01-09T07:53:10.858Z,92.20
2019-01-09T07:55:41.055Z,93.60
2019-01-09T07:58:11.181Z,88.30
2019-01-09T08:00:41.410Z,98.10
2019-01-09T08:03:12.028Z,99.90
2019-01-09T08:05:42.232Z,99.90
2019-01-09T08:08:13.398Z,99.90
2019-01-09T08:10:43.831Z,99.90
2019-01-09T08:13:13.984Z,99.90
2019-01-09T08:15:44.188Z,97.90
2019-01-09T08:18:14.321Z,98.60
2019-01-09T08:20:44.782Z,97.60
2019-01-09T08:23:15.080Z,95.30
2019-01-09T08:25:45.171Z,95.00
2019-01-09T08:28:15.277Z,98.80
2019-01-09T08:30:45.481Z,97.30
2019-01-09T08:33:16.027Z,97.40
2019-01-09T08:35:46.188Z,89.20
2019-01-09T08:38:16.335Z,80.70
2019-01-09T08:40:46.652Z,85.90
2019-01-09T08:43:17.122Z,73.60
2019-01-09T08:45:48.302Z,77.90
2019-01-09T08:48:18.421Z,75.50
2019-01-09T08:50:48.800Z,70.40
2019-01-09T08:53:18.968Z,51.80
2019-01-09T08:55:49.144Z,49.90
2019-01-09T08:58:19.250Z,47.50
2019-01-09T09:00:49.438Z,36.10
2019-01-09T09:03:19.540Z,31.80
2019-01-09T09:05:50.942Z,30.70
2019-01-09T09:08:21.624Z,28.70
2019-01-09T09:10:51.992Z,22.70
2019-01-09T09:13:40.694Z,26.80
2019-01-09T09:16:12.182Z,21.40
2019-01-09T09:18:42.274Z,21.60
2019-01-09T09:21:12.339Z,16.80
2019-01-09T09:23:42.451Z,19.00
2019-01-09T09:26:12.599Z,12.70
2019-01-09T09:28:43.015Z,16.80
2019-01-09T09:31:13.339Z,19.50
2019-01-09T09:33:43.435Z,16.90
2019-01-09T09:36:13.608Z,15.40
2019-01-09T09:38:44.109Z,14.10
2019-01-09T09:41:14.330Z,16.30
2019-01-09T09:43:44.391Z,14.70
2019-01-09T09:46:14.460Z,17.40
2019-01-09T09:48:44.624Z,13.90
2019-01-09T09:51:14.707Z,13.40
2019-01-09T09:53:45.053Z,13.80
2019-01-09T09:56:15.356Z,16.70
2019-01-09T09:58:45.509Z,18.20
2019-01-09T10:01:15.652Z,15.20
2019-01-09T10:03:45.906Z,19.80
2019-01-09T10:06:16.243Z,20.10
2019-01-09T10:08:46.409Z,26.00
2019-01-09T10:11:16.642Z,31.70
2019-01-09T10:13:46.840Z,37.10
2019-01-09T10:16:17.613Z,45.60
2019-01-09T10:18:47.670Z,54.60
2019-01-09T10:21:18.726Z,53.30
2019-01-09T10:23:48.865Z,53.10
2019-01-09T10:26:19.196Z,52.90
2019-01-09T10:28:50.377Z,44.50
2019-01-09T10:31:20.525Z,50.70
2019-01-09T10:33:50.614Z,56.30
2019-01-09T10:36:20.754Z,60.40
2019-01-09T10:38:50.832Z,62.30
2019-01-09T10:41:20.903Z,62.10
2019-01-09T10:43:51.304Z,59.10
2019-01-09T10:46:21.463Z,54.00
2019-01-09T10:48:51.523Z,55.20
2019-01-09T10:51:21.615Z,53.00
2019-01-09T10:53:51.773Z,58.20
2019-01-09T10:56:21.940Z,60.90
2019-01-09T10:58:52.363Z,62.00
2019-01-09T11:01:22.497Z,59.40
2019-01-09T11:03:52.891Z,59.00
2019-01-09T11:06:23.087Z,55.90
2019-01-09T11:08:53.536Z,51.90
2019-01-09T11:11:23.702Z,51.60
2019-01-09T11:13:53.888Z,55.90
2019-01-09T11:16:23.942Z,53.60
2019-01-09T11:18:54.065Z,57.20
2019-01-09T11:21:25.481Z,50.40
2019-01-09T11:23:55.594Z,47.00
2019-01-09T11:26:25.735Z,49.30
2019-01-09T11:28:55.792Z,55.00
2019-01-09T11:31:25.916Z,54.20
2019-01-09T11:33:55.963Z,57.30
2019-01-09T11:36:26.049Z,57.40
2019-01-09T11:38:56.142Z,56.00
2019-01-09T11:41:26.548Z,52.90
2019-01-09T11:43:56.737Z,50.20
2019-01-09T11:46:26.801Z,53.70
2019-01-09T11:48:56.948Z,60.10
2019-01-09T11:51:27.065Z,62.50
2019-01-09T11:53:57.254Z,66.40
2019-01-09T11:56:27.591Z,67.40
2019-01-09T11:58:57.835Z,63.40
2019-01-09T12:01:27.989Z,54.60
2019-01-09T12:03:58.143Z,44.30
2019-01-09T12:06:28.211Z,39.20
2019-01-09T12:09:04.408Z,40.70
2019-01-09T12:11:30.759Z,34.50
2019-01-09T12:14:00.843Z,33.30
2019-01-09T12:16:31.028Z,36.30
2019-01-09T12:19:01.224Z,30.00
2019-01-09T12:21:31.594Z,31.60
2019-01-09T12:24:02.722Z,37.10
2019-01-09T12:26:32.859Z,28.40
2019-01-09T12:29:03.274Z,28.60
2019-01-09T12:31:33.359Z,29.80
2019-01-09T12:34:03.611Z,29.60
2019-01-09T12:36:33.913Z,33.30
2019-01-09T12:39:13.201Z,31.50
2019-01-09T12:41:38.077Z,36.40
2019-01-09T12:44:08.240Z,26.60
2019-01-09T12:46:38.319Z,25.80
2019-01-09T12:49:08.501Z,24.50
2019-01-09T12:51:38.832Z,14.30
2019-01-09T12:54:09.263Z,16.30
2019-01-09T12:56:39.325Z,14.30
2019-01-09T12:59:09.422Z,19.30
2019-01-09T13:01:39.594Z,18.10
2019-01-09T13:04:10.212Z,22.30
2019-01-09T13:06:40.408Z,22.10
2019-01-09T13:09:10.964Z,24.90
2019-01-09T13:11:41.194Z,27.50
2019-01-09T13:14:11.294Z,31.70
2019-01-09T13:16:47.731Z,32.40
2019-01-09T13:19:13.173Z,30.10
2019-01-09T13:21:43.314Z,32.70
2019-01-09T13:24:13.412Z,33.40
2019-01-09T13:26:43.507Z,32.70
2019-01-09T13:29:13.681Z,28.10
2019-01-09T13:31:44.101Z,35.90
2019-01-09T13:34:14.586Z,30.10
2019-01-09T13:36:44.987Z,28.20
2019-01-09T13:39:15.393Z,22.30
2019-01-09T13:41:45.559Z,24.90
2019-01-09T13:44:15.853Z,21.60
2019-01-09T13:46:46.231Z,18.00
2019-01-09T13:49:16.438Z,9.90
2019-01-09T13:51:46.692Z,17.40
2019-01-09T13:54:17.209Z,8.80
2019-01-09T13:56:47.352Z,15.20
2019-01-09T13:59:17.529Z,14.60
2019-01-09T14:01:47.705Z,17.30
2019-01-09T14:04:17.901Z,18.10
2019-01-09T14:06:48.252Z,20.50
2019-01-09T14:09:18.567Z,20.70
2019-01-09T14:11:48.724Z,24.60
2019-01-09T14:14:18.903Z,27.00
2019-01-09T14:16:49.297Z,32.10
2019-01-09T14:19:19.500Z,34.50
2019-01-09T14:21:49.709Z,37.40
2019-01-09T14:24:19.899Z,40.20
2019-01-09T14:26:51.369Z,39.60
2019-01-09T14:29:21.711Z,42.20
2019-01-09T14:31:51.854Z,41.80
2019-01-09T14:34:21.971Z,36.80
2019-01-09T14:36:52.341Z,40.60
2019-01-09T14:39:22.594Z,35.10
2019-01-09T14:41:52.773Z,34.70
2019-01-09T14:44:22.903Z,35.50
2019-01-09T14:46:53.055Z,40.80
2019-01-09T14:49:23.533Z,37.90
2019-01-09T14:51:53.804Z,42.00
2019-01-09T14:54:25.024Z,36.80
2019-01-09T14:56:55.393Z,39.30
2019-01-09T14:59:25.593Z,43.00
2019-01-09T15:01:55.843Z,35.50
2019-01-09T15:04:26.058Z,38.80
2019-01-09T15:06:56.515Z,42.30
2019-01-09T15:09:26.731Z,31.30
2019-01-09T15:11:56.843Z,36.90
2019-01-09T15:14:27.007Z,37.60
2019-01-09T15:16:57.075Z,37.00
2019-01-09T15:19:27.305Z,31.50
2019-01-09T15:21:59.403Z,27.20
2019-01-09T15:24:29.827Z,29.20
2019-01-09T15:27:00.016Z,34.70
2019-01-09T15:29:30.126Z,36.00
2019-01-09T15:32:00.317Z,35.60
2019-01-09T15:34:30.778Z,31.30
2019-01-09T15:37:00.910Z,32.90
2019-01-09T15:39:31.026Z,36.00
2019-01-09T15:42:01.123Z,42.50
2019-01-09T15:44:31.222Z,45.10
2019-01-09T15:47:01.375Z,51.00
2019-01-09T15:49:31.849Z,49.80
2019-01-09T15:52:02.036Z,47.20
2019-01-09T15:54:32.153Z,39.60
2019-01-09T15:57:02.316Z,36.10
2019-01-09T15:59:32.690Z,38.50
2019-01-09T16:02:04.065Z,45.50
2019-01-09T16:04:34.213Z,44.80
2019-01-09T16:07:04.651Z,45.40
2019-01-09T16:09:34.958Z,43.40
2019-01-09T16:12:05.259Z,41.90
2019-01-09T16:14:35.423Z,42.80
2019-01-09T16:17:06.813Z,38.70
2019-01-09T16:19:37.065Z,41.30
2019-01-09T16:22:07.219Z,42.70
2019-01-09T16:24:37.374Z,47.50
2019-01-09T16:27:07.901Z,47.90
2019-01-09T16:29:38.175Z,51.80
2019-01-09T16:32:08.377Z,51.40
2019-01-09T16:34:38.846Z,56.10
2019-01-09T16:37:09.186Z,55.00
2019-01-09T16:39:39.409Z,59.30
2019-01-09T16:42:09.525Z,59.70
2019-01-09T16:44:39.942Z,62.70
2019-01-09T16:47:10.268Z,59.90
2019-01-09T16:49:40.349Z,66.60
2019-01-09T16:52:10.567Z,65.00
2019-01-09T16:54:41.028Z,66.60
2019-01-09T16:57:11.336Z,66.90
2019-01-09T16:59:41.547Z,70.00
2019-01-09T17:02:12.471Z,65.50
2019-01-09T17:04:42.650Z,66.30
2019-01-09T17:07:13.151Z,67.80
2019-01-09T17:09:43.402Z,68.30
2019-01-09T17:12:14.540Z,59.80
2019-01-09T17:14:45.062Z,58.30
2019-01-09T17:17:15.437Z,58.60
2019-01-09T17:19:45.624Z,59.60
2019-01-09T17:22:15.766Z,58.60
2019-01-09T17:24:46.341Z,61.20
2019-01-09T17:27:16.497Z,60.70
2019-01-09T17:29:46.774Z,61.50
2019-01-09T17:32:17.276Z,61.50
2019-01-09T17:34:47.482Z,62.80
2019-01-09T17:37:17.807Z,60.70
2019-01-09T17:39:49.308Z,59.90
2019-01-09T17:42:19.595Z,58.90
2019-01-09T17:44:49.812Z,57.80
2019-01-09T17:47:20.508Z,59.10
2019-01-09T17:49:50.785Z,61.60
2019-01-09T17:52:20.904Z,57.30
2019-01-09T17:54:51.322Z,61.80
2019-01-09T17:57:21.502Z,62.60
2019-01-09T17:59:51.662Z,60.80
2019-01-09T18:02:21.927Z,67.10
2019-01-09T18:04:52.395Z,64.40
2019-01-09T18:07:22.638Z,68.80
2019-01-09T18:09:52.743Z,69.00
2019-01-09T18:12:22.986Z,73.10
2019-01-09T18:14:53.525Z,73.60
2019-01-09T18:17:23.777Z,72.60
2019-01-09T18:19:54.426Z,71.00
2019-01-09T18:22:24.690Z,73.80
2019-01-09T18:24:55.068Z,70.20
2019-01-09T18:27:25.503Z,73.70
2019-01-09T18:29:55.618Z,78.80
2019-01-09T18:32:50.295Z,78.80
2019-01-09T18:35:46.000Z,77.70
2019-01-09T18:38:30.956Z,75.30
2019-01-09T18:41:40.380Z,76.40
2019-01-09T18:44:25.010Z,74.60
2019-01-09T18:47:22.104Z,74.40
2019-01-09T18:50:29.647Z,69.00
2019-01-09T18:53:18.429Z,70.30
2019-01-09T18:55:50.750Z,68.40
2019-01-09T18:58:20.948Z,66.20
2019-01-09T19:00:51.123Z,66.10
2019-01-09T19:03:21.665Z,66.30
2019-01-09T19:05:51.948Z,63.70
2019-01-09T19:08:22.201Z,61.00
2019-01-09T19:10:52.590Z,64.40
2019-01-09T19:13:23.026Z,60.30
2019-01-09T19:15:53.146Z,58.30
2019-01-09T19:18:23.832Z,66.40
2019-01-09T19:20:53.977Z,63.30
2019-01-09T19:23:24.244Z,64.80
2019-01-09T19:25:54.843Z,59.10
2019-01-09T19:28:24.948Z,63.40
2019-01-09T19:30:55.092Z,59.20
2019-01-09T19:33:25.341Z,57.00
2019-01-09T19:35:55.842Z,64.20
2019-01-09T19:38:26.105Z,64.30
2019-01-09T19:40:59.630Z,60.30
2019-01-09T19:43:28.107Z,64.30
2019-01-09T19:45:58.358Z,65.90
2019-01-09T19:48:28.815Z,69.60
2019-01-09T19:50:59.044Z,71.50
2019-01-09T19:53:29.159Z,75.60
2019-01-09T19:56:01.147Z,72.90
2019-01-09T19:58:31.236Z,78.10
2019-01-09T20:01:02.432Z,77.50
2019-01-09T20:03:32.882Z,79.50
2019-01-09T20:06:03.183Z,80.30
2019-01-09T20:08:33.479Z,80.90
2019-01-09T20:11:06.051Z,80.70
2019-01-09T20:13:36.313Z,80.00
2019-01-09T20:16:06.910Z,79.20
2019-01-09T20:18:37.141Z,74.10
2019-01-09T20:21:07.376Z,75.00
2019-01-09T20:23:37.814Z,74.40
2019-01-09T20:26:08.555Z,76.80
2019-01-09T20:28:39.146Z,80.00
2019-01-09T20:31:09.450Z,81.60
2019-01-09T20:33:39.886Z,84.70
2019-01-09T20:36:10.350Z,86.30
2019-01-09T20:38:40.592Z,86.90
2019-01-09T20:41:12.820Z,83.10
2019-01-09T20:43:43.258Z,81.60
2019-01-09T20:46:13.371Z,79.40
2019-01-09T20:48:43.698Z,76.60
2019-01-09T20:51:14.212Z,75.30
2019-01-09T20:53:44.486Z,76.60
2019-01-09T20:56:16.099Z,76.60
2019-01-09T20:58:46.224Z,76.20
2019-01-09T21:01:16.664Z,77.40
2019-01-09T21:03:47.100Z,80.90
2019-01-09T21:06:17.599Z,82.20
2019-01-09T21:08:48.102Z,81.00
2019-01-09T21:11:18.423Z,81.20
2019-01-09T21:13:48.700Z,83.90
2019-01-09T21:16:19.232Z,81.20
2019-01-09T21:18:49.422Z,78.80
2019-01-09T21:21:19.537Z,79.20
2019-01-09T21:23:49.765Z,79.10
2019-01-09T21:26:20.205Z,79.70
2019-01-09T21:28:50.426Z,82.20
2019-01-09T21:31:20.622Z,81.60
2019-01-09T21:33:50.789Z,84.60
2019-01-09T21:36:21.174Z,80.90
2019-01-09T21:38:51.273Z,81.10
2019-01-09T21:41:21.585Z,82.80
2019-01-09T21:43:51.768Z,83.70
2019-01-09T21:46:22.303Z,86.40
2019-01-09T21:48:52.486Z,81.20
2019-01-09T21:51:22.573Z,82.20
2019-01-09T21:53:52.758Z,84.20
2019-01-09T21:56:22.931Z,87.00
2019-01-09T21:58:53.426Z,83.00
2019-01-09T22:01:23.592Z,84.20
2019-01-09T22:03:53.732Z,84.40
2019-01-09T22:06:23.872Z,85.00
2019-01-09T22:08:55.375Z,84.50
2019-01-09T22:11:25.461Z,83.30
2019-01-09T22:13:55.522Z,79.90
2019-01-09T22:16:25.756Z,80.30
2019-01-09T22:18:55.835Z,78.00
2019-01-09T22:21:25.951Z,77.80
2019-01-09T22:23:56.405Z,80.80
2019-01-09T22:26:26.518Z,80.80
2019-01-09T22:28:56.684Z,76.90
2019-01-09T22:31:26.906Z,78.40
2019-01-09T22:33:57.136Z,75.70
2019-01-09T22:36:27.539Z,73.10
2019-01-09T22:38:57.699Z,71.40
2019-01-09T22:41:27.871Z,71.80
2019-01-09T22:43:58.009Z,64.70
2019-01-09T22:46:28.518Z,66.40
2019-01-09T22:48:59.125Z,68.20
2019-01-09T22:51:29.537Z,68.20
2019-01-09T22:53:59.654Z,69.10
2019-01-09T22:56:29.860Z,71.20
2019-01-09T22:59:00.011Z,73.90
2019-01-09T23:01:31.758Z,73.70
2019-01-09T23:04:01.905Z,71.60
2019-01-09T23:06:32.021Z,65.90
2019-01-09T23:09:02.113Z,66.70
2019-01-09T23:11:33.762Z,61.90
2019-01-09T23:14:03.929Z,63.00
2019-01-09T23:16:34.032Z,63.40
2019-01-09T23:19:04.296Z,62.60
2019-01-09T23:21:34.715Z,60.20
2019-01-09T23:24:05.938Z,59.70
2019-01-09T23:26:37.067Z,63.40
2019-01-09T23:29:07.331Z,64.30
2019-01-09T23:31:37.776Z,63.90
2019-01-09T23:34:08.065Z,63.10
2019-01-09T23:36:38.202Z,57.80
2019-01-09T23:39:10.575Z,60.70
2019-01-09T23:41:40.776Z,62.50
2019-01-09T23:44:10.958Z,61.40
2019-01-09T23:46:41.271Z,59.10
2019-01-09T23:49:11.336Z,62.10
2019-01-09T23:51:41.809Z,66.40
2019-01-09T23:54:12.060Z,68.50
2019-01-09T23:56:42.211Z,68.80
2019-01-09T23:59:12.334Z,71.70
